createdAt,value
2022-09-02T00:01:46.504Z,6.44
2022-09-02T00:04:22.631Z,6.44
2022-09-02T00:06:53.359Z,6.41
2022-09-02T00:09:25.394Z,6.41
2022-09-02T00:11:56.512Z,6.34
2022-09-02T00:14:34.040Z,6.18
2022-09-02T00:17:02.881Z,6.21
2022-09-02T00:19:32.046Z,6.27
2022-09-02T00:22:02.406Z,6.17
2022-09-02T00:24:31.285Z,6.21
2022-09-02T00:26:59.654Z,6.22
2022-09-02T00:29:29.108Z,5.90
2022-09-02T00:31:57.420Z,6.20
2022-09-02T00:34:26.255Z,6.25
2022-09-02T00:36:54.618Z,6.04
2022-09-02T00:39:23.187Z,5.95
2022-09-02T00:41:51.632Z,5.93
2022-09-02T00:44:22.376Z,5.74
2022-09-02T00:46:50.820Z,5.58
2022-09-02T00:49:35.702Z,5.84
2022-09-02T00:52:14.649Z,5.53
2022-09-02T00:55:04.687Z,5.47
2022-09-02T00:57:40.286Z,5.72
2022-09-02T01:00:18.120Z,5.71
2022-09-02T01:02:55.266Z,5.60
2022-09-02T01:05:27.106Z,5.73
2022-09-02T01:07:55.311Z,5.65
2022-09-02T01:10:28.672Z,5.64
2022-09-02T01:12:59.105Z,5.50
2022-09-02T01:15:28.224Z,5.34
2022-09-02T01:17:56.361Z,5.55
2022-09-02T01:20:26.319Z,5.49
2022-09-02T01:22:55.579Z,5.46
2022-09-02T01:25:28.946Z,5.47
2022-09-02T01:28:08.563Z,5.58
2022-09-02T01:30:42.489Z,5.64
2022-09-02T01:33:12.142Z,5.52
2022-09-02T01:35:40.675Z,5.40
2022-09-02T01:38:09.929Z,5.63
2022-09-02T01:40:38.929Z,5.46
2022-09-02T01:43:30.281Z,5.48
2022-09-02T01:45:59.796Z,5.41
2022-09-02T01:48:31.247Z,5.36
2022-09-02T01:51:02.970Z,5.30
2022-09-02T01:53:32.102Z,5.18
2022-09-02T01:56:00.951Z,5.15
2022-09-02T01:58:33.002Z,4.91
2022-09-02T02:01:01.318Z,5.28
2022-09-02T02:03:30.819Z,5.23
2022-09-02T02:06:01.177Z,5.16
2022-09-02T02:08:30.552Z,5.06
2022-09-02T02:11:01.271Z,4.97
2022-09-02T02:13:31.335Z,5.01
2022-09-02T02:15:59.503Z,4.88
2022-09-02T02:18:29.916Z,4.89
2022-09-02T02:20:58.212Z,4.89
2022-09-02T02:23:26.332Z,4.63
2022-09-02T02:25:54.691Z,4.73
2022-09-02T02:28:23.237Z,4.87
2022-09-02T02:30:51.479Z,4.63
2022-09-02T02:33:20.452Z,4.79
2022-09-02T02:35:48.735Z,4.79
2022-09-02T02:38:16.775Z,4.75
2022-09-02T02:40:45.370Z,4.74
2022-09-02T02:43:13.700Z,4.73
2022-09-02T02:45:41.770Z,4.76
2022-09-02T02:48:10.139Z,4.72
2022-09-02T02:50:38.530Z,4.72
2022-09-02T02:53:07.661Z,4.73
2022-09-02T02:55:36.061Z,4.61
2022-09-02T02:58:04.671Z,4.59
2022-09-02T03:00:34.855Z,4.58
2022-09-02T03:03:10.422Z,4.58
2022-09-02T03:05:40.960Z,4.23
2022-09-02T03:08:11.245Z,4.27
2022-09-02T03:10:42.216Z,4.15
2022-09-02T03:13:12.335Z,4.15
2022-09-02T03:15:40.656Z,4.08
2022-09-02T03:18:10.294Z,4.04
2022-09-02T03:20:41.531Z,4.29
2022-09-02T03:23:12.949Z,3.34
2022-09-02T03:25:46.182Z,3.70
2022-09-02T03:28:25.762Z,4.24
2022-09-02T03:30:54.432Z,3.96
2022-09-02T03:33:25.029Z,4.28
2022-09-02T03:35:53.429Z,4.24
2022-09-02T03:38:21.921Z,4.20
2022-09-02T03:40:50.085Z,4.13
2022-09-02T03:43:19.554Z,4.04
2022-09-02T03:45:47.871Z,3.92
2022-09-02T03:48:16.288Z,4.03
2022-09-02T03:50:47.530Z,4.00
2022-09-02T03:53:20.879Z,4.13
2022-09-02T03:55:55.232Z,4.22
2022-09-02T03:58:26.500Z,4.21
2022-09-02T04:00:56.825Z,4.19
2022-09-02T04:03:26.612Z,4.17
2022-09-02T04:05:55.106Z,4.16
2022-09-02T04:08:26.771Z,3.99
2022-09-02T04:10:58.051Z,4.25
2022-09-02T04:13:27.380Z,4.13
2022-09-02T04:15:58.594Z,4.36
2022-09-02T04:18:31.233Z,4.38
2022-09-02T04:21:01.518Z,4.46
2022-09-02T04:23:30.074Z,4.51
2022-09-02T04:25:59.037Z,3.97
2022-09-02T04:28:27.105Z,4.55
2022-09-02T04:30:55.571Z,4.52
2022-09-02T04:33:24.246Z,4.64
2022-09-02T04:35:52.948Z,4.73
2022-09-02T04:38:21.893Z,4.80
2022-09-02T04:40:50.416Z,4.62
2022-09-02T04:43:20.373Z,4.95
2022-09-02T04:45:49.788Z,5.06
2022-09-02T04:48:20.029Z,5.17
2022-09-02T04:50:50.141Z,5.40
2022-09-02T04:53:19.448Z,5.65
2022-09-02T04:55:48.402Z,5.90
2022-09-02T04:58:17.418Z,6.46
2022-09-02T05:00:48.844Z,7.12
2022-09-02T05:03:20.319Z,7.54
2022-09-02T05:05:57.853Z,7.94
2022-09-02T05:08:26.162Z,7.99
2022-09-02T05:10:54.369Z,8.29
2022-09-02T05:13:23.949Z,8.34
2022-09-02T05:15:54.958Z,8.35
2022-09-02T05:18:23.757Z,8.66
2022-09-02T05:20:55.601Z,8.87
2022-09-02T05:23:23.825Z,9.20
2022-09-02T05:25:53.432Z,9.35
2022-09-02T05:28:21.920Z,9.74
2022-09-02T05:30:50.267Z,10.23
2022-09-02T05:33:18.574Z,10.31
2022-09-02T05:35:53.382Z,10.83
2022-09-02T05:38:22.067Z,10.65
2022-09-02T05:40:50.156Z,11.50
2022-09-02T05:43:19.333Z,11.58
2022-09-02T05:45:49.085Z,11.97
2022-09-02T05:48:37.903Z,12.21
2022-09-02T05:51:07.456Z,12.53
2022-09-02T05:53:36.290Z,12.66
2022-09-02T05:56:06.326Z,12.88
2022-09-02T05:58:35.713Z,13.22
2022-09-02T06:01:12.486Z,13.74
2022-09-02T06:03:41.516Z,13.62
2022-09-02T06:06:11.729Z,13.99
2022-09-02T06:08:42.264Z,14.37
2022-09-02T06:11:12.961Z,14.40
2022-09-02T06:13:43.723Z,14.38
2022-09-02T06:16:20.067Z,14.96
2022-09-02T06:18:50.893Z,15.45
2022-09-02T06:21:21.155Z,15.55
2022-09-02T06:23:53.158Z,15.78
2022-09-02T06:26:22.803Z,15.94
2022-09-02T06:28:53.911Z,16.03
2022-09-02T06:31:23.698Z,16.14
2022-09-02T06:33:55.605Z,16.21
2022-09-02T06:36:28.560Z,16.52
2022-09-02T06:39:00.767Z,16.60
2022-09-02T06:41:33.975Z,16.52
2022-09-02T06:44:07.888Z,16.60
2022-09-02T06:46:47.906Z,16.75
2022-09-02T06:49:17.012Z,16.72
2022-09-02T06:51:51.409Z,16.84
2022-09-02T06:54:22.933Z,16.78
2022-09-02T06:56:55.625Z,16.66
2022-09-02T06:59:27.146Z,17.13
2022-09-02T07:02:00.584Z,16.44
2022-09-02T07:04:48.433Z,17.01
2022-09-02T07:07:21.282Z,17.18
2022-09-02T07:10:09.483Z,17.30
2022-09-02T07:12:44.335Z,17.94
2022-09-02T07:15:16.782Z,17.95
2022-09-02T07:17:46.144Z,18.08
2022-09-02T07:20:20.720Z,18.59
2022-09-02T07:22:54.982Z,18.41
2022-09-02T07:25:24.968Z,18.52
2022-09-02T07:27:54.750Z,18.49
2022-09-02T07:30:24.142Z,18.58
2022-09-02T07:33:05.737Z,18.88
2022-09-02T07:35:37.867Z,18.36
2022-09-02T07:38:10.265Z,18.65
2022-09-02T07:40:41.787Z,19.04
2022-09-02T07:43:12.162Z,19.58
2022-09-02T07:45:43.946Z,19.02
2022-09-02T07:48:12.950Z,19.17
2022-09-02T07:50:42.334Z,19.87
2022-09-02T07:53:14.267Z,18.84
2022-09-02T07:55:44.236Z,18.68
2022-09-02T07:58:16.159Z,19.02
2022-09-02T08:00:44.953Z,19.48
2022-09-02T08:03:15.274Z,19.21
2022-09-02T08:05:49.662Z,19.25
2022-09-02T08:08:21.790Z,19.18
2022-09-02T08:10:51.895Z,19.28
2022-09-02T08:13:20.791Z,19.28
2022-09-02T08:15:50.873Z,19.43
2022-09-02T08:18:22.398Z,20.10
2022-09-02T08:20:50.977Z,20.52
2022-09-02T08:23:35.419Z,19.61
2022-09-02T08:26:06.737Z,19.29
2022-09-02T08:28:35.397Z,19.60
2022-09-02T08:31:09.658Z,20.23
2022-09-02T08:33:38.113Z,20.18
2022-09-02T08:36:09.438Z,20.52
2022-09-02T08:38:38.284Z,20.29
2022-09-02T08:44:37.364Z,20.04
2022-09-02T08:47:13.404Z,20.35
2022-09-02T08:49:51.893Z,20.88
2022-09-02T08:52:53.447Z,21.30
2022-09-02T08:55:35.437Z,21.68
2022-09-02T08:58:03.740Z,22.52
2022-09-02T09:00:40.470Z,22.77
2022-09-02T09:03:24.448Z,23.08
2022-09-02T09:06:13.135Z,22.98
2022-09-02T09:09:08.969Z,23.35
2022-09-02T09:11:57.623Z,23.36
2022-09-02T09:15:05.714Z,23.20
2022-09-02T09:17:53.200Z,23.13
2022-09-02T09:20:27.477Z,22.47
2022-09-02T09:23:21.969Z,21.91
2022-09-02T09:25:56.182Z,21.22
2022-09-02T09:28:24.425Z,21.63
2022-09-02T09:30:53.059Z,21.83
2022-09-02T09:33:22.981Z,22.41
2022-09-02T09:35:55.309Z,23.01
2022-09-02T09:38:36.918Z,23.20
2022-09-02T09:41:23.296Z,22.89
2022-09-02T09:43:51.615Z,22.90
2022-09-02T09:46:32.495Z,21.70
2022-09-02T09:49:00.881Z,22.33
2022-09-02T09:51:29.019Z,22.68
2022-09-02T09:54:16.775Z,23.06
2022-09-02T09:56:45.225Z,23.33
2022-09-02T09:59:47.430Z,23.37
2022-09-02T10:02:28.316Z,23.74
2022-09-02T10:05:27.958Z,23.85
2022-09-02T10:08:19.648Z,23.12
2022-09-02T10:11:19.782Z,22.91
2022-09-02T10:13:47.978Z,22.88
2022-09-02T10:16:22.535Z,22.71
2022-09-02T10:19:03.046Z,23.10
2022-09-02T10:22:08.515Z,21.80
2022-09-02T10:24:48.697Z,22.32
2022-09-02T10:27:24.726Z,22.08
2022-09-02T10:30:03.695Z,21.88
2022-09-02T10:33:09.888Z,22.73
2022-09-02T10:35:54.740Z,21.80
2022-09-02T10:38:37.437Z,20.41
2022-09-02T10:41:36.100Z,21.12
2022-09-02T10:44:27.500Z,21.19
2022-09-02T10:47:01.921Z,22.29
2022-09-02T10:50:16.056Z,23.26
2022-09-02T10:53:05.876Z,23.53
2022-09-02T10:56:22.172Z,22.89
2022-09-02T10:59:16.561Z,23.65
2022-09-02T11:02:14.139Z,23.86
2022-09-02T11:05:08.048Z,24.19
2022-09-02T11:07:53.280Z,22.78
2022-09-02T11:10:31.963Z,21.92
2022-09-02T11:13:52.058Z,22.03
2022-09-02T11:16:46.202Z,21.68
2022-09-02T11:19:34.319Z,23.07
2022-09-02T11:22:39.184Z,23.64
2022-09-02T11:26:10.680Z,23.83
2022-09-02T11:29:10.752Z,22.92
2022-09-02T11:32:02.677Z,23.33
2022-09-02T11:34:37.001Z,23.66
2022-09-02T11:37:09.231Z,23.28
2022-09-02T11:39:59.222Z,23.17
2022-09-02T11:43:11.281Z,23.99
2022-09-02T11:46:34.246Z,23.84
2022-09-02T11:49:20.987Z,24.67
2022-09-02T11:52:33.752Z,23.38
2022-09-02T11:55:11.353Z,23.72
2022-09-02T11:57:41.550Z,23.93
2022-09-02T12:00:31.001Z,24.48
2022-09-02T12:03:37.942Z,24.99
2022-09-02T12:06:17.603Z,24.16
2022-09-02T12:08:45.788Z,24.62
2022-09-02T12:11:39.297Z,23.22
2022-09-02T12:14:13.926Z,22.23
2022-09-02T12:17:00.960Z,22.57
2022-09-02T12:19:40.292Z,23.07
2022-09-02T12:22:18.935Z,23.84
2022-09-02T12:25:03.672Z,24.92
2022-09-02T12:27:37.175Z,24.77
2022-09-02T12:30:11.795Z,23.82
2022-09-02T12:32:51.807Z,22.44
2022-09-02T12:38:15.631Z,21.21
2022-09-02T12:41:05.958Z,22.81
2022-09-02T12:44:15.786Z,23.75
2022-09-02T12:46:48.467Z,23.47
2022-09-02T12:49:48.706Z,23.63
2022-09-02T12:52:35.053Z,24.27
2022-09-02T12:55:11.278Z,24.56
2022-09-02T12:57:42.821Z,23.87
2022-09-02T13:00:26.581Z,24.01
2022-09-02T13:03:29.178Z,24.08
2022-09-02T13:06:18.265Z,23.49
2022-09-02T13:12:34.617Z,24.44
2022-09-02T13:15:26.604Z,25.13
2022-09-02T13:18:43.901Z,25.10
2022-09-02T13:21:58.528Z,24.81
2022-09-02T13:25:04.407Z,25.04
2022-09-02T13:27:57.772Z,24.15
2022-09-02T13:30:51.733Z,25.31
2022-09-02T13:33:20.284Z,25.09
2022-09-02T13:35:57.200Z,24.45
2022-09-02T13:38:28.747Z,24.39
2022-09-02T13:40:56.852Z,24.17
2022-09-02T13:43:27.298Z,24.11
2022-09-02T13:46:01.737Z,23.36
2022-09-02T13:48:33.178Z,23.82
2022-09-02T13:51:13.998Z,23.53
2022-09-02T13:56:36.719Z,23.46
2022-09-02T13:59:05.007Z,23.92
2022-09-02T14:01:38.234Z,24.42
2022-09-02T14:04:16.571Z,23.54
2022-09-02T14:06:47.795Z,23.77
2022-09-02T14:09:30.534Z,23.90
2022-09-02T14:12:00.731Z,23.55
2022-09-02T14:14:29.906Z,22.55
2022-09-02T14:17:23.947Z,23.11
2022-09-02T14:20:10.281Z,22.70
2022-09-02T14:22:40.042Z,23.11
2022-09-02T14:25:16.857Z,23.99
2022-09-02T14:27:59.334Z,23.67
2022-09-02T14:30:37.634Z,23.67
2022-09-02T14:33:26.725Z,22.88
2022-09-02T14:36:08.817Z,23.16
2022-09-02T14:38:46.154Z,23.65
2022-09-02T14:41:34.287Z,23.71
2022-09-02T14:44:25.563Z,24.06
2022-09-02T14:46:58.969Z,23.88
2022-09-02T14:49:30.523Z,23.97
2022-09-02T14:52:01.990Z,23.76
2022-09-02T14:54:37.889Z,23.66
2022-09-02T14:57:32.656Z,23.65
2022-09-02T15:00:14.254Z,22.89
2022-09-02T15:02:47.873Z,23.17
2022-09-02T15:05:16.909Z,23.35
2022-09-02T15:07:46.742Z,23.18
2022-09-02T15:10:14.832Z,23.40
2022-09-02T15:13:01.416Z,22.99
2022-09-02T15:15:29.425Z,23.16
2022-09-02T15:17:57.900Z,22.88
2022-09-02T15:20:29.046Z,22.94
2022-09-02T15:22:57.377Z,23.22
2022-09-02T15:25:25.947Z,22.48
2022-09-02T15:27:54.296Z,22.71
2022-09-02T15:30:22.363Z,23.10
2022-09-02T15:32:51.656Z,22.85
2022-09-02T15:35:19.905Z,22.43
2022-09-02T15:37:51.020Z,22.49
2022-09-02T15:40:19.578Z,22.20
2022-09-02T15:42:49.086Z,21.92
2022-09-02T15:45:17.334Z,21.64
2022-09-02T15:47:45.455Z,21.50
2022-09-02T15:50:14.313Z,21.61
2022-09-02T15:52:46.441Z,21.41
2022-09-02T15:55:14.917Z,21.61
2022-09-02T15:57:42.881Z,21.29
2022-09-02T16:00:11.541Z,20.64
2022-09-02T16:02:44.618Z,20.88
2022-09-02T16:05:13.566Z,20.95
2022-09-02T16:07:42.087Z,20.95
2022-09-02T16:10:10.916Z,20.51
2022-09-02T16:12:39.229Z,20.69
2022-09-02T16:15:08.241Z,20.45
2022-09-02T16:17:36.625Z,20.32
2022-09-02T16:20:05.742Z,20.14
2022-09-02T16:22:34.037Z,19.96
2022-09-02T16:25:03.212Z,19.78
2022-09-02T16:27:49.846Z,19.31
2022-09-02T16:30:18.651Z,19.48
2022-09-02T16:32:47.838Z,19.28
2022-09-02T16:35:16.266Z,19.11
2022-09-02T16:37:45.098Z,19.12
2022-09-02T16:40:21.515Z,19.00
2022-09-02T16:42:50.266Z,18.85
2022-09-02T16:45:18.432Z,18.90
2022-09-02T16:47:47.196Z,19.06
2022-09-02T16:50:15.859Z,19.17
2022-09-02T16:52:44.607Z,19.27
2022-09-02T16:55:18.158Z,19.23
2022-09-02T16:57:46.345Z,19.21
2022-09-02T17:00:15.784Z,18.67
2022-09-02T17:02:44.525Z,18.23
2022-09-02T17:05:14.647Z,18.06
2022-09-02T17:07:45.550Z,17.82
2022-09-02T17:10:13.834Z,17.62
2022-09-02T17:12:43.218Z,17.62
2022-09-02T17:15:11.734Z,17.44
2022-09-02T17:17:40.485Z,17.21
2022-09-02T17:20:09.397Z,17.14
2022-09-02T17:22:37.632Z,16.91
2022-09-02T17:25:08.824Z,16.49
2022-09-02T17:27:37.811Z,16.75
2022-09-02T17:30:07.761Z,16.55
2022-09-02T17:32:36.084Z,16.48
2022-09-02T17:35:05.565Z,15.97
2022-09-02T17:37:37.758Z,16.20
2022-09-02T17:40:29.300Z,16.05
2022-09-02T17:42:58.881Z,15.92
2022-09-02T17:45:27.071Z,15.74
2022-09-02T17:47:55.112Z,15.53
2022-09-02T17:50:23.182Z,15.64
2022-09-02T17:52:53.734Z,15.43
2022-09-02T17:55:22.712Z,15.45
2022-09-02T17:58:15.008Z,15.30
2022-09-02T18:00:46.825Z,14.96
2022-09-02T18:03:40.301Z,15.23
2022-09-02T18:06:22.117Z,14.90
2022-09-02T18:09:01.617Z,15.04
2022-09-02T18:11:31.022Z,14.71
2022-09-02T18:14:10.605Z,14.62
2022-09-02T18:16:52.075Z,14.85
2022-09-02T18:19:32.760Z,14.75
2022-09-02T18:22:33.558Z,14.69
2022-09-02T18:25:08.651Z,14.53
2022-09-02T18:28:09.390Z,14.49
2022-09-02T18:31:05.173Z,14.21
2022-09-02T18:33:46.417Z,14.32
2022-09-02T18:36:52.074Z,13.97
2022-09-02T18:39:42.109Z,13.89
2022-09-02T18:42:10.483Z,14.08
2022-09-02T18:44:44.265Z,13.97
2022-09-02T18:47:28.776Z,13.88
2022-09-02T18:50:01.599Z,13.78
2022-09-02T18:52:32.172Z,13.78
2022-09-02T18:55:00.330Z,13.78
2022-09-02T18:57:44.618Z,13.67
2022-09-02T19:00:14.106Z,13.55
2022-09-02T19:03:05.841Z,13.50
2022-09-02T19:05:36.454Z,13.43
2022-09-02T19:08:35.744Z,13.34
2022-09-02T19:11:14.417Z,13.26
2022-09-02T19:13:53.143Z,12.96
2022-09-02T19:16:33.350Z,12.43
2022-09-02T19:19:03.613Z,13.09
2022-09-02T19:21:53.098Z,13.03
2022-09-02T19:24:58.297Z,12.64
2022-09-02T19:27:34.097Z,12.80
2022-09-02T19:30:19.044Z,12.70
2022-09-02T19:32:54.031Z,12.67
2022-09-02T19:35:26.617Z,12.61
2022-09-02T19:37:57.816Z,12.54
2022-09-02T19:40:33.197Z,12.43
2022-09-02T19:43:05.488Z,12.45
2022-09-02T19:45:39.452Z,12.34
2022-09-02T19:48:11.466Z,12.20
2022-09-02T19:50:46.129Z,12.17
2022-09-02T19:53:30.370Z,12.13
2022-09-02T19:56:21.820Z,12.07
2022-09-02T19:58:51.448Z,11.97
2022-09-02T20:01:19.782Z,11.92
2022-09-02T20:03:48.238Z,11.52
2022-09-02T20:06:16.633Z,11.80
2022-09-02T20:08:45.018Z,11.71
2022-09-02T20:11:13.724Z,11.48
2022-09-02T20:13:42.041Z,11.62
2022-09-02T20:16:22.418Z,11.31
2022-09-02T20:18:54.276Z,11.55
2022-09-02T20:25:38.148Z,11.37
2022-09-02T20:29:09.185Z,11.24
2022-09-02T20:32:17.473Z,11.05
2022-09-02T20:34:45.857Z,11.01
2022-09-02T20:37:28.972Z,10.94
2022-09-02T20:40:22.082Z,10.74
2022-09-02T20:43:16.055Z,10.75
2022-09-02T20:46:20.887Z,10.75
2022-09-02T20:49:18.321Z,10.70
2022-09-02T20:52:22.712Z,10.68
2022-09-02T20:55:18.371Z,10.47
2022-09-02T20:58:23.542Z,10.53
2022-09-02T21:01:08.265Z,10.50
2022-09-02T21:04:05.926Z,10.39
2022-09-02T21:06:44.650Z,10.28
2022-09-02T21:09:33.460Z,10.30
2022-09-02T21:12:25.669Z,10.18
2022-09-02T21:15:04.083Z,10.18
2022-09-02T21:18:18.519Z,10.14
2022-09-02T21:21:25.940Z,10.08
2022-09-02T21:23:58.568Z,9.98
2022-09-02T21:27:21.877Z,9.92
2022-09-02T21:30:08.262Z,9.82
2022-09-02T21:34:06.546Z,9.67
2022-09-02T21:36:45.873Z,9.43
2022-09-02T21:39:22.205Z,9.51
2022-09-02T21:42:38.160Z,9.51
2022-09-02T21:46:00.104Z,9.45
2022-09-02T21:48:58.455Z,8.89
2022-09-02T21:51:42.158Z,9.35
2022-09-02T21:54:26.705Z,9.37
2022-09-02T21:57:24.889Z,9.28
2022-09-02T21:59:56.288Z,9.18
2022-09-02T22:02:58.212Z,8.93
2022-09-02T22:05:48.916Z,9.12
2022-09-02T22:08:50.624Z,9.02
2022-09-02T22:11:42.171Z,8.63
2022-09-02T22:14:16.274Z,8.89
2022-09-02T22:17:01.750Z,8.80
2022-09-02T22:19:39.338Z,8.69
2022-09-02T22:22:24.696Z,8.67
2022-09-02T22:24:55.289Z,8.57
2022-09-02T22:27:39.939Z,8.60
2022-09-02T22:30:17.345Z,8.58
2022-09-02T22:33:07.170Z,8.50
2022-09-02T22:36:01.250Z,8.42
2022-09-02T22:39:02.326Z,8.10
2022-09-02T22:42:03.159Z,8.31
2022-09-02T22:45:25.366Z,8.25
2022-09-02T22:48:43.867Z,8.15
2022-09-02T22:52:06.465Z,8.21
2022-09-02T22:54:34.662Z,7.83
2022-09-02T22:57:38.435Z,8.15
2022-09-02T23:00:10.660Z,8.09
2022-09-02T23:03:11.946Z,8.15
2022-09-02T23:05:47.973Z,8.16
2022-09-02T23:08:21.147Z,8.16
2022-09-02T23:11:12.799Z,7.86
2022-09-02T23:13:58.972Z,8.09
2022-09-02T23:17:03.841Z,7.70
2022-09-02T23:20:02.204Z,8.03
2022-09-02T23:22:51.800Z,8.02
2022-09-02T23:25:34.542Z,8.10
2022-09-02T23:28:15.370Z,8.13
2022-09-02T23:31:20.359Z,8.11
2022-09-02T23:34:14.009Z,8.18
2022-09-02T23:37:27.124Z,8.13
2022-09-02T23:40:11.679Z,8.10
2022-09-02T23:42:40.447Z,7.51
2022-09-02T23:45:31.366Z,7.97
2022-09-02T23:48:05.438Z,7.95
2022-09-02T23:50:47.332Z,7.88
2022-09-02T23:53:54.549Z,7.28
2022-09-02T23:56:53.968Z,7.74
2022-09-02T23:59:36.685Z,7.78
